Time;durP1;ratioP1;P1;durP2;ratioP2;P2;SDS_P1;SDS_P2;PMS_P1;PMS_P2;Temp;Humidity;BMP_temperature;BMP_pressure;BME280_temperature;BME280_humidity;BME280_pressure;Samples;Min_cycle;Max_cycle;Signal;HPM_P1;HPM_P2
2021/09/21 00:01:18;;;;;;;9.65;8.30;;;;;;;11.32;100.00;96498.88;5014922;28;24436;-77
2021/09/21 00:03:44;;;;;;;22.95;9.40;;;;;;;11.35;100.00;96511.66;5013675;28;24440;-77
2021/09/21 00:06:12;;;;;;;9.85;8.85;;;;;;;11.36;100.00;96505.56;5015145;28;24425;-77
2021/09/21 00:08:40;;;;;;;9.55;8.50;;;;;;;11.35;100.00;96509.06;5016333;28;24551;-77
2021/09/21 00:11:07;;;;;;;9.48;8.55;;;;;;;11.38;100.00;96510.63;5015841;28;24451;-79
2021/09/21 00:13:35;;;;;;;9.57;8.57;;;;;;;11.37;100.00;96515.00;5015217;28;24424;-78
2021/09/21 00:16:03;;;;;;;9.00;8.20;;;;;;;11.49;100.00;96513.50;5013056;28;25056;-77
2021/09/21 00:18:29;;;;;;;9.18;8.00;;;;;;;11.49;100.00;96515.25;5014004;28;24435;-78
2021/09/21 00:20:56;;;;;;;11.13;8.52;;;;;;;11.52;100.00;96513.31;5016003;28;24424;-77
2021/09/21 00:23:24;;;;;;;9.35;7.78;;;;;;;11.46;100.00;96518.00;5014095;28;24429;-77
2021/09/21 00:25:50;;;;;;;8.88;7.95;;;;;;;11.41;100.00;96514.84;5013767;28;24439;-78
2021/09/21 00:28:17;;;;;;;9.52;7.40;;;;;;;11.36;100.00;96518.53;5015692;28;24440;-78
2021/09/21 00:30:47;;;;;;;9.25;8.13;;;;;;;11.36;100.00;96518.53;5014491;28;24435;-77
2021/09/21 00:33:17;;;;;;;9.10;7.80;;;;;;;11.34;100.00;96517.75;5013296;28;24770;-78
2021/09/21 00:35:45;;;;;;;9.25;8.02;;;;;;;11.33;100.00;96517.84;5012945;28;24436;-76
2021/09/21 00:38:14;;;;;;;9.25;8.35;;;;;;;11.32;100.00;96526.56;5013132;28;24436;-77
2021/09/21 00:40:42;;;;;;;11.30;8.93;;;;;;;11.04;100.00;96528.00;5013033;28;24432;-77
2021/09/21 00:43:09;;;;;;;10.68;8.15;;;;;;;11.00;100.00;96530.84;5012844;28;24444;-76
2021/09/21 00:45:35;;;;;;;9.10;8.20;;;;;;;10.95;100.00;96525.91;5012927;28;24786;-76
2021/09/21 00:48:02;;;;;;;9.52;8.52;;;;;;;10.92;100.00;96527.81;5012994;28;24459;-76
2021/09/21 00:50:30;;;;;;;11.60;8.10;;;;;;;10.77;100.00;96529.44;5012949;28;24506;-76
2021/09/21 00:52:59;;;;;;;9.95;8.20;;;;;;;10.74;100.00;96527.84;5012849;28;24428;-77
2021/09/21 00:55:26;;;;;;;10.15;9.25;;;;;;;10.71;100.00;96525.41;5012627;28;24453;-77
2021/09/21 00:57:54;;;;;;;9.47;8.57;;;;;;;10.84;100.00;96518.69;5012735;28;24420;-76
2021/09/21 01:00:22;;;;;;;9.52;8.40;;;;;;;10.96;100.00;96524.16;5012911;28;24455;-77
2021/09/21 01:02:48;;;;;;;12.60;8.80;;;;;;;10.89;100.00;96524.44;5012454;28;24966;-77
2021/09/21 01:05:15;;;;;;;9.90;8.95;;;;;;;10.83;100.00;96529.16;5012506;28;24818;-77
2021/09/21 01:07:43;;;;;;;9.32;8.48;;;;;;;10.89;100.00;96521.88;5012653;28;24474;-77
2021/09/21 01:10:12;;;;;;;9.77;8.70;;;;;;;10.93;100.00;96532.91;5012397;28;24934;-77
2021/09/21 01:12:39;;;;;;;9.67;8.63;;;;;;;11.26;100.00;96525.13;5012552;28;24436;-77
2021/09/21 01:15:09;;;;;;;9.52;8.32;;;;;;;11.33;100.00;96521.28;5012281;28;24460;-77
2021/09/21 01:17:36;;;;;;;10.35;8.32;;;;;;;11.29;100.00;96527.53;5014124;28;24436;-78
2021/09/21 01:20:03;;;;;;;11.85;7.72;;;;;;;11.32;100.00;96527.38;5014176;28;24429;-76
2021/09/21 01:22:31;;;;;;;8.27;7.38;;;;;;;11.30;100.00;96521.44;5012579;28;24428;-76
2021/09/21 01:24:58;;;;;;;7.80;6.95;;;;;;;11.21;100.00;96519.34;5012049;28;24486;-77
2021/09/21 01:27:24;;;;;;;7.90;7.10;;;;;;;11.13;100.00;96534.47;5012097;28;24992;-77
2021/09/21 01:29:51;;;;;;;12.63;7.18;;;;;;;11.09;100.00;96532.97;5011960;28;24973;-77
2021/09/21 01:32:19;;;;;;;13.45;8.88;;;;;;;11.05;100.00;96534.88;5012258;28;24431;-76
2021/09/21 01:34:47;;;;;;;9.05;8.10;;;;;;;11.04;100.00;96530.59;5011447;28;24486;-76
2021/09/21 01:37:13;;;;;;;10.77;8.75;;;;;;;10.98;100.00;96527.50;5012143;28;24432;-77
2021/09/21 01:39:41;;;;;;;11.73;9.18;;;;;;;10.88;100.00;96530.56;5012135;28;24487;-76
2021/09/21 01:42:09;;;;;;;9.45;8.40;;;;;;;10.88;100.00;96533.16;5011875;28;24985;-76
2021/09/21 01:44:36;;;;;;;9.27;8.35;;;;;;;10.98;100.00;96535.28;5011821;28;24427;-76
2021/09/21 01:47:05;;;;;;;7.72;6.65;;;;;;;11.14;100.00;96529.19;5012556;28;24412;-78
2021/09/21 01:49:37;;;;;;;8.60;7.13;;;;;;;11.18;100.00;96535.06;5013651;28;24825;-77
2021/09/21 01:52:10;;;;;;;7.60;6.90;;;;;;;11.21;100.00;96537.50;5013907;28;24431;-77
2021/09/21 01:54:49;;;;;;;9.52;7.85;;;;;;;11.15;100.00;96530.88;5013723;28;24416;-78
2021/09/21 02:00:01;;;;;;;12.18;8.95;;;;;;;10.84;100.00;96533.41;5013726;28;24412;-77
2021/09/21 02:02:27;;;;;;;9.43;8.40;;;;;;;10.72;100.00;96532.28;5013758;28;24428;-77
2021/09/21 02:04:54;;;;;;;9.38;8.48;;;;;;;10.60;100.00;96533.72;5013661;28;24443;-77
2021/09/21 02:07:20;;;;;;;9.73;8.70;;;;;;;10.72;100.00;96532.28;5013923;28;24515;-78
2021/09/21 02:09:47;;;;;;;11.15;8.18;;;;;;;10.82;100.00;96530.88;5013133;28;24966;-78
2021/09/21 02:12:13;;;;;;;9.77;8.60;;;;;;;10.92;100.00;96523.47;5013394;28;24496;-78
2021/09/21 02:14:41;;;;;;;9.57;8.13;;;;;;;10.97;100.00;96529.22;5013045;28;24973;-77
2021/09/21 02:17:07;;;;;;;10.82;8.68;;;;;;;11.04;100.00;96525.41;5011466;28;24503;-77
2021/09/21 02:19:34;;;;;;;10.93;8.33;;;;;;;10.97;100.00;96539.59;5011448;28;24468;-77
2021/09/21 02:22:00;;;;;;;8.63;7.63;;;;;;;11.01;100.00;96538.56;5011434;28;24427;-77
2021/09/21 02:24:27;;;;;;;13.93;8.02;;;;;;;10.90;100.00;96541.69;5011241;28;24486;-77
2021/09/21 02:26:53;;;;;;;13.45;7.90;;;;;;;10.74;100.00;96539.97;5011276;28;24829;-77
2021/09/21 02:29:20;;;;;;;9.60;7.63;;;;;;;10.80;100.00;96550.03;5011358;28;24829;-77
2021/09/21 02:31:48;;;;;;;9.35;8.55;;;;;;;10.69;100.00;96547.97;5013197;28;24515;-77
2021/09/21 02:34:14;;;;;;;9.60;8.70;;;;;;;10.71;100.00;96543.53;5013289;28;24436;-77
2021/09/21 02:36:41;;;;;;;10.80;8.23;;;;;;;10.86;100.00;96544.50;5012615;28;24498;-77
2021/09/21 02:39:08;;;;;;;9.10;7.30;;;;;;;10.97;100.00;96543.97;5013039;28;24474;-78
2021/09/21 02:41:34;;;;;;;9.93;8.93;;;;;;;10.88;100.00;96548.69;5012917;28;25035;-76
2021/09/21 02:44:01;;;;;;;11.15;9.05;;;;;;;10.94;100.00;96546.69;5011177;28;24425;-77
2021/09/21 02:46:27;;;;;;;9.80;8.75;;;;;;;10.97;100.00;96544.78;5010924;28;24822;-77
2021/09/21 02:48:55;;;;;;;9.55;8.55;;;;;;;10.86;100.00;96540.19;5012908;28;24427;-78
2021/09/21 02:51:21;;;;;;;9.98;8.60;;;;;;;10.78;100.00;96539.72;5013054;28;24817;-78
2021/09/21 02:53:48;;;;;;;11.77;8.77;;;;;;;10.80;100.00;96553.44;5013010;28;24424;-77
2021/09/21 02:56:15;;;;;;;8.93;8.02;;;;;;;10.89;100.00;96547.78;5012585;28;24460;-79
2021/09/21 02:58:41;;;;;;;9.68;8.35;;;;;;;10.97;100.00;96543.97;5012050;28;24443;-78
2021/09/21 03:01:08;;;;;;;8.95;8.15;;;;;;;11.04;100.00;96546.16;5012492;28;24420;-77
2021/09/21 03:03:42;;;;;;;8.80;7.47;;;;;;;11.19;100.00;96538.47;5012895;28;24456;-78
2021/09/21 03:06:19;;;;;;;10.73;7.53;;;;;;;11.24;100.00;96534.75;5015220;28;24427;-78
2021/09/21 03:08:46;;;;;;;7.78;6.43;;;;;;;11.16;100.00;96542.09;5016649;28;24528;-78
2021/09/21 03:11:16;;;;;;;7.20;6.50;;;;;;;11.07;100.00;96539.97;5016706;28;24522;-77
2021/09/21 03:19:08;;;;;;;8.80;7.38;;;;;;;11.02;100.00;96544.56;5014328;28;24523;-76
2021/09/21 03:21:36;;;;;;;9.68;8.07;;;;;;;11.17;100.00;96543.75;5014671;28;24483;-77
2021/09/21 03:24:02;;;;;;;8.90;8.02;;;;;;;11.02;100.00;96545.41;5014704;28;24877;-77
2021/09/21 03:26:29;;;;;;;9.57;7.95;;;;;;;10.89;100.00;96558.16;5014372;28;24424;-76
2021/09/21 03:28:55;;;;;;;8.73;7.85;;;;;;;10.69;100.00;96565.28;5014453;28;24451;-77
2021/09/21 03:31:22;;;;;;;9.23;7.93;;;;;;;10.54;100.00;96553.94;5014599;28;24567;-76
2021/09/21 03:33:48;;;;;;;10.48;8.48;;;;;;;10.33;100.00;96555.81;5014442;28;24799;-77
2021/09/21 03:36:15;;;;;;;10.80;8.10;;;;;;;10.35;100.00;96554.84;5015466;28;24845;-77
2021/09/21 03:38:43;;;;;;;8.90;8.05;;;;;;;10.26;100.00;96551.88;5015818;28;24483;-78
2021/09/21 03:41:09;;;;;;;11.93;7.75;;;;;;;10.18;100.00;96554.78;5016085;28;24429;-77
2021/09/21 03:43:35;;;;;;;11.57;8.60;;;;;;;10.11;100.00;96558.59;5015831;28;24416;-77
2021/09/21 03:46:02;;;;;;;10.02;9.07;;;;;;;10.01;100.00;96554.75;5015566;28;24417;-77
2021/09/21 03:48:28;;;;;;;9.27;8.38;;;;;;;10.01;100.00;96568.56;5016078;28;24443;-78
2021/09/21 03:50:55;;;;;;;8.85;7.95;;;;;;;10.10;100.00;96564.69;5015976;28;24432;-79
2021/09/21 03:53:21;;;;;;;11.25;8.40;;;;;;;10.22;100.00;96564.09;5015945;28;24946;-79
2021/09/21 03:55:49;;;;;;;8.40;7.60;;;;;;;10.15;100.00;96573.06;5016235;28;24514;-77
2021/09/21 03:58:15;;;;;;;8.93;7.65;;;;;;;10.14;100.00;96572.22;5016372;28;24429;-78
2021/09/21 04:00:42;;;;;;;8.73;7.83;;;;;;;10.21;100.00;96582.28;5015314;28;24440;-77
2021/09/21 04:03:08;;;;;;;10.75;7.45;;;;;;;10.28;100.00;96581.94;5015544;28;24449;-77
2021/09/21 04:05:35;;;;;;;9.63;8.02;;;;;;;10.48;100.00;96575.78;5019825;28;24444;-80
2021/09/21 04:08:01;;;;;;;11.27;8.30;;;;;;;10.55;100.00;96577.16;5025064;28;24442;-79
2021/09/21 04:10:28;;;;;;;11.63;8.07;;;;;;;10.73;100.00;96582.34;5010101;28;24448;-80
2021/09/21 04:12:56;;;;;;;9.70;8.50;;;;;;;10.75;100.00;96588.28;5015718;28;24446;-77
2021/09/21 04:15:22;;;;;;;9.13;8.23;;;;;;;10.65;100.00;96588.75;5014218;28;25036;-77
2021/09/21 04:17:49;;;;;;;8.60;7.60;;;;;;;10.72;100.00;96589.28;5014850;28;24540;-79
2021/09/21 04:20:15;;;;;;;10.02;8.85;;;;;;;10.71;100.00;96587.59;5015749;28;24420;-78
2021/09/21 04:22:43;;;;;;;9.65;8.48;;;;;;;10.78;100.00;96588.94;5020484;28;24443;-79
2021/09/21 04:25:11;;;;;;;9.60;8.70;;;;;;;11.06;100.00;96590.97;5014607;28;24456;-79
2021/09/21 04:27:37;;;;;;;11.65;8.82;;;;;;;10.88;100.00;96594.50;5014394;28;24455;-78
2021/09/21 04:30:07;;;;;;;9.93;8.88;;;;;;;10.69;100.00;96593.78;5014274;28;24462;-79
2021/09/21 04:32:33;;;;;;;11.10;9.30;;;;;;;10.41;100.00;96598.53;5013547;28;24823;-80
2021/09/21 04:35:00;;;;;;;10.57;9.17;;;;;;;10.30;100.00;96595.63;5014212;28;24985;-80
2021/09/21 04:37:27;;;;;;;13.13;9.73;;;;;;;10.24;100.00;96597.69;5014720;28;24548;-80
2021/09/21 04:39:54;;;;;;;10.02;9.05;;;;;;;10.31;100.00;96609.44;5013613;28;24482;-80
2021/09/21 04:42:22;;;;;;;9.40;8.50;;;;;;;10.67;100.00;96617.16;5012961;28;24818;-77
2021/09/21 04:44:49;;;;;;;10.35;9.30;;;;;;;10.71;100.00;96618.66;5013143;28;24428;-78
2021/09/21 04:47:17;;;;;;;8.88;8.07;;;;;;;10.65;100.00;96614.66;5013557;28;24424;-79
2021/09/21 04:49:43;;;;;;;10.38;8.65;;;;;;;10.64;100.00;96618.16;5016675;28;21187;-78
2021/09/21 04:52:10;;;;;;;10.43;8.63;;;;;;;10.71;100.00;96629.03;5017005;28;24469;-78
2021/09/21 04:54:36;;;;;;;10.18;9.00;;;;;;;10.56;100.00;96641.00;5016534;28;24432;-78
2021/09/21 04:57:03;;;;;;;11.63;9.45;;;;;;;10.36;100.00;96649.72;5016313;28;24455;-78
2021/09/21 04:59:29;;;;;;;11.45;8.82;;;;;;;10.13;100.00;96647.38;5015441;28;24424;-78
2021/09/21 05:01:56;;;;;;;11.90;9.75;;;;;;;10.11;100.00;96659.53;5015076;28;24419;-78
2021/09/21 05:04:24;;;;;;;10.75;9.25;;;;;;;10.23;100.00;96660.69;5014087;28;24431;-77
2021/09/21 05:06:50;;;;;;;12.73;9.43;;;;;;;10.29;100.00;96663.88;5013839;28;24470;-79
2021/09/21 05:09:17;;;;;;;10.13;9.10;;;;;;;10.17;100.00;96665.28;5015414;28;24831;-79
2021/09/21 05:11:45;;;;;;;11.15;9.02;;;;;;;10.21;100.00;96671.16;4999375;28;20775;-78
2021/09/21 05:14:11;;;;;;;9.93;8.93;;;;;;;10.34;100.00;96671.44;4996141;28;24429;-78
2021/09/21 05:16:38;;;;;;;13.98;8.68;;;;;;;10.41;100.00;96678.81;4996088;28;24448;-78
2021/09/21 05:19:07;;;;;;;9.80;8.48;;;;;;;10.58;100.00;96683.22;4994791;28;24421;-82
2021/09/21 05:21:36;;;;;;;8.43;7.60;;;;;;;10.87;100.00;96686.16;4994103;28;24425;-81
2021/09/21 05:24:03;;;;;;;10.27;8.77;;;;;;;10.75;100.00;96692.75;4994126;28;24859;-80
2021/09/21 05:26:30;;;;;;;9.98;8.95;;;;;;;10.56;100.00;96697.97;4994157;28;20759;-80
2021/09/21 05:28:56;;;;;;;10.77;9.15;;;;;;;10.38;100.00;96693.66;4993408;28;24439;-82
2021/09/21 05:31:23;;;;;;;9.55;8.65;;;;;;;10.39;100.00;96705.72;4993629;28;24416;-79
2021/09/21 05:33:49;;;;;;;9.52;8.48;;;;;;;10.19;100.00;96704.00;4993142;28;24491;-79
2021/09/21 05:36:15;;;;;;;10.15;8.55;;;;;;;10.31;100.00;96700.91;4992898;28;24454;-80
2021/09/21 05:38:43;;;;;;;9.10;8.15;;;;;;;10.23;100.00;96710.72;4994153;28;24449;-81
2021/09/21 05:41:10;;;;;;;8.40;7.60;;;;;;;10.35;100.00;96709.38;5006432;28;20774;-80
2021/09/21 05:43:36;;;;;;;10.25;8.68;;;;;;;10.26;100.00;96714.97;5013300;28;24436;-80
2021/09/21 05:46:03;;;;;;;10.15;8.10;;;;;;;10.29;100.00;96714.81;5014247;28;24434;-77
2021/09/21 05:48:29;;;;;;;9.73;7.97;;;;;;;10.22;100.00;96718.56;5014972;28;24437;-78
2021/09/21 05:50:56;;;;;;;9.87;8.87;;;;;;;10.12;100.00;96718.16;5014093;28;24860;-78
2021/09/21 05:53:22;;;;;;;10.98;8.93;;;;;;;9.97;100.00;96719.69;5013304;28;24429;-77
2021/09/21 05:55:50;;;;;;;8.82;7.40;;;;;;;10.07;100.00;96718.38;5012297;28;24447;-76
2021/09/21 05:58:16;;;;;;;9.25;8.20;;;;;;;10.21;100.00;96717.75;5011067;28;25020;-76
2021/09/21 06:00:43;;;;;;;8.50;7.68;;;;;;;10.23;100.00;96713.31;5012716;28;24478;-76
2021/09/21 06:03:09;;;;;;;9.55;8.55;;;;;;;10.28;100.00;96716.59;5011953;28;24822;-76
2021/09/21 06:05:36;;;;;;;10.10;7.80;;;;;;;10.39;100.00;96716.09;5011257;28;24906;-77
2021/09/21 06:08:02;;;;;;;8.15;7.47;;;;;;;10.69;100.00;96724.16;5011559;28;24431;-76
2021/09/21 06:10:36;;;;;;;8.75;7.85;;;;;;;10.66;100.00;96724.28;5006196;28;24436;-76
2021/09/21 06:13:08;;;;;;;10.55;8.40;;;;;;;10.99;100.00;96713.19;4998890;28;20814;-78
2021/09/21 06:15:42;;;;;;;10.43;8.88;;;;;;;11.09;100.00;96711.84;5003821;28;24533;-78
2021/09/21 06:18:08;;;;;;;8.80;7.90;;;;;;;11.19;100.00;96715.63;5000253;28;24463;-76
2021/09/21 06:20:36;;;;;;;12.20;8.30;;;;;;;11.23;100.00;96711.13;4994254;28;24433;-76
2021/09/21 06:25:50;;;;;;;10.30;8.27;;;;;;;11.17;100.00;96721.81;4999374;28;20682;-78
2021/09/21 06:28:18;;;;;;;8.70;7.80;;;;;;;11.08;100.00;96720.50;4995543;28;24429;-80
2021/09/21 06:30:44;;;;;;;8.80;7.93;;;;;;;11.06;100.00;96723.19;4996366;28;24420;-79
2021/09/21 06:33:11;;;;;;;8.98;7.70;;;;;;;11.18;100.00;96726.94;4995110;28;24420;-76
2021/09/21 06:35:38;;;;;;;8.88;7.47;;;;;;;10.90;100.00;96738.66;5011844;28;24838;-78
2021/09/21 06:38:04;;;;;;;7.80;7.10;;;;;;;10.88;100.00;96750.00;5013991;28;24459;-79
2021/09/21 06:40:31;;;;;;;9.97;8.30;;;;;;;10.60;100.00;96755.66;5014892;28;24435;-77
2021/09/21 06:42:57;;;;;;;8.68;7.63;;;;;;;10.60;100.00;96760.84;5013973;28;24965;-77
2021/09/21 06:45:25;;;;;;;10.52;7.85;;;;;;;10.43;100.00;96771.16;5015483;28;24425;-76
2021/09/21 06:47:52;;;;;;;12.68;8.25;;;;;;;10.34;100.00;96777.59;5014747;28;24424;-79
2021/09/21 06:50:19;;;;;;;10.23;7.78;;;;;;;10.25;100.00;96776.28;5013856;28;24424;-79
2021/09/21 06:52:45;;;;;;;9.65;7.28;;;;;;;10.36;100.00;96786.97;5014402;28;24785;-78
2021/09/21 06:55:13;;;;;;;9.90;8.90;;;;;;;10.32;100.00;96780.25;5014270;28;24844;-79
2021/09/21 06:57:39;;;;;;;11.98;8.48;;;;;;;10.32;100.00;96779.44;5014711;28;24447;-79
2021/09/21 07:00:08;;;;;;;10.48;8.23;;;;;;;10.34;100.00;96781.00;5015363;28;24431;-76
2021/09/21 07:02:36;;;;;;;8.75;7.85;;;;;;;10.41;100.00;96777.22;5015525;28;24435;-78
2021/09/21 07:05:03;;;;;;;9.73;7.63;;;;;;;10.56;100.00;96788.63;5014835;28;24583;-78
2021/09/21 07:07:30;;;;;;;13.60;8.20;;;;;;;10.75;100.00;96793.78;5015558;28;24412;-77
2021/09/21 07:09:56;;;;;;;8.30;7.50;;;;;;;10.87;100.00;96795.81;5012037;28;24838;-77
2021/09/21 07:12:23;;;;;;;9.90;7.95;;;;;;;11.02;100.00;96790.81;4995766;28;24432;-76
2021/09/21 07:14:49;;;;;;;8.68;7.68;;;;;;;11.17;100.00;96797.84;4995484;28;24420;-77
2021/09/21 07:17:15;;;;;;;8.85;7.63;;;;;;;11.32;100.00;96804.88;4995946;28;24460;-78
2021/09/21 07:19:43;;;;;;;7.70;6.88;;;;;;;11.47;100.00;96811.06;4996442;28;24432;-76
2021/09/21 07:22:10;;;;;;;9.13;7.63;;;;;;;11.69;100.00;96821.22;4995967;28;24474;-78
2021/09/21 07:24:36;;;;;;;8.75;7.05;;;;;;;11.66;100.00;96812.75;4996209;28;24429;-76
2021/09/21 07:27:03;;;;;;;10.88;7.30;;;;;;;11.83;99.42;96823.97;4993135;28;25025;-77
2021/09/21 07:29:30;;;;;;;9.00;7.22;;;;;;;11.77;95.51;96819.06;4991562;28;24429;-76
2021/09/21 07:31:56;;;;;;;7.82;6.78;;;;;;;11.72;94.15;96820.22;5005652;28;24443;-74
2021/09/21 07:34:23;;;;;;;7.85;6.95;;;;;;;11.59;92.85;96817.38;5012864;28;24474;-75
2021/09/21 07:36:52;;;;;;;7.28;6.45;;;;;;;11.81;93.28;96822.34;5012333;28;24456;-74
2021/09/21 07:39:19;;;;;;;9.38;7.18;;;;;;;12.09;93.37;96833.03;5011759;28;24428;-75
2021/09/21 07:41:46;;;;;;;8.20;7.40;;;;;;;12.37;98.03;96828.97;4997215;28;24564;-75
2021/09/21 07:44:12;;;;;;;9.38;7.15;;;;;;;12.52;93.41;96837.72;4993986;28;24428;-77
2021/09/21 07:46:39;;;;;;;9.18;6.88;;;;;;;12.83;88.00;96842.94;4990899;28;24984;-77
2021/09/21 07:49:05;;;;;;;7.47;6.57;;;;;;;12.58;85.73;96850.38;4990887;28;24436;-76
2021/09/21 07:51:32;;;;;;;7.40;6.57;;;;;;;12.76;83.86;96848.56;4992507;28;24424;-77
2021/09/21 07:53:59;;;;;;;7.82;6.30;;;;;;;12.74;86.23;96853.81;4994837;28;24432;-77
2021/09/21 07:56:26;;;;;;;7.38;6.68;;;;;;;12.83;86.82;96845.53;4996581;28;24425;-77
2021/09/21 07:58:52;;;;;;;7.55;6.65;;;;;;;12.99;83.37;96853.34;4994419;28;24537;-78
2021/09/21 08:01:19;;;;;;;7.18;6.40;;;;;;;13.07;83.27;96847.69;4998573;28;24432;-78
2021/09/21 08:03:45;;;;;;;7.03;6.32;;;;;;;13.05;77.08;96855.59;4998651;28;24424;-77
2021/09/21 08:06:12;;;;;;;8.63;6.70;;;;;;;13.01;78.73;96848.03;4997194;28;24444;-78
2021/09/21 08:08:40;;;;;;;7.28;6.40;;;;;;;12.79;78.81;96854.44;4996858;28;24951;-79
2021/09/21 08:11:10;;;;;;;13.55;6.75;;;;;;;12.94;79.22;96864.88;5007393;28;24515;-77
2021/09/21 08:13:37;;;;;;;7.30;6.40;;;;;;;13.03;76.75;96872.22;5015047;28;24436;-76
2021/09/21 08:16:04;;;;;;;6.97;6.00;;;;;;;13.11;75.04;96874.38;5015768;28;24452;-76
2021/09/21 08:18:30;;;;;;;7.93;6.03;;;;;;;13.13;76.35;96875.16;5034291;28;24464;-77
2021/09/21 08:20:57;;;;;;;7.78;6.30;;;;;;;13.19;77.53;96867.00;5035870;28;24430;-78
2021/09/21 08:23:24;;;;;;;7.05;6.38;;;;;;;13.08;76.81;96862.38;5036914;28;24984;-79
2021/09/21 08:25:51;;;;;;;6.85;6.15;;;;;;;13.35;78.27;96865.25;5036326;28;24416;-78
2021/09/21 08:28:19;;;;;;;8.07;6.45;;;;;;;13.50;77.54;96876.56;5037645;28;24488;-79
2021/09/21 08:30:46;;;;;;;8.13;6.20;;;;;;;13.84;73.57;96872.84;5036925;28;24431;-78
2021/09/21 08:33:12;;;;;;;7.35;6.28;;;;;;;13.63;71.07;96868.88;5036778;28;24427;-77
2021/09/21 08:35:39;;;;;;;8.32;6.50;;;;;;;13.85;71.55;96881.50;5036035;28;24798;-78
2021/09/21 08:38:05;;;;;;;6.82;6.13;;;;;;;13.79;73.32;96880.94;5036966;28;24467;-79
2021/09/21 08:40:32;;;;;;;7.07;6.18;;;;;;;13.95;72.52;96878.28;5030140;28;24432;-78
2021/09/21 08:42:59;;;;;;;6.55;5.82;;;;;;;13.72;69.14;96877.00;5016617;28;24423;-78
2021/09/21 08:45:28;;;;;;;7.35;5.55;;;;;;;13.61;71.17;96878.53;5015579;28;24424;-78
2021/09/21 08:47:55;;;;;;;8.45;6.13;;;;;;;14.19;74.11;96870.75;5016950;28;24428;-76
2021/09/21 08:50:23;;;;;;;7.50;6.10;;;;;;;14.35;70.45;96873.31;5013167;28;24989;-77
2021/09/21 08:52:49;;;;;;;8.75;6.45;;;;;;;14.13;72.65;96876.34;5013318;28;24442;-77
2021/09/21 08:55:16;;;;;;;10.00;6.28;;;;;;;14.44;71.23;96877.13;5013243;28;24427;-77
2021/09/21 08:57:44;;;;;;;6.15;5.55;;;;;;;14.45;69.06;96882.22;5012825;28;24455;-76
2021/09/21 09:00:14;;;;;;;6.40;5.68;;;;;;;14.76;71.77;96891.66;5018493;28;24428;-77
2021/09/21 09:02:42;;;;;;;7.88;6.13;;;;;;;14.58;71.00;96886.75;5017986;28;24427;-77
2021/09/21 09:05:11;;;;;;;6.45;5.80;;;;;;;14.53;71.74;96892.22;5017608;28;24419;-78
2021/09/21 09:07:49;;;;;;;8.55;6.53;;;;;;;14.44;69.40;96896.19;5016336;28;24420;-76
2021/09/21 09:10:17;;;;;;;8.85;5.80;;;;;;;14.17;67.71;96903.06;5007279;28;24441;-76
2021/09/21 09:12:45;;;;;;;6.47;5.88;;;;;;;14.09;70.03;96903.50;4993216;28;24479;-76
2021/09/21 09:15:13;;;;;;;6.22;5.63;;;;;;;13.98;66.43;96911.13;4992549;28;24790;-76
2021/09/21 09:17:55;;;;;;;5.95;5.38;;;;;;;13.97;67.87;96910.25;4989458;28;25010;-76
2021/09/21 09:20:31;;;;;;;6.47;5.30;;;;;;;13.93;66.42;96906.16;4985946;28;25044;-76
2021/09/21 09:22:58;;;;;;;6.85;6.25;;;;;;;13.89;75.59;96914.25;4984971;28;24424;-77
2021/09/21 09:25:25;;;;;;;6.17;5.57;;;;;;;13.91;74.47;96915.00;4982938;28;24450;-77
2021/09/21 09:27:52;;;;;;;8.93;6.30;;;;;;;13.85;70.60;96908.38;4985209;28;24733;-76
2021/09/21 09:30:22;;;;;;;6.30;5.70;;;;;;;14.06;70.39;96915.88;4984984;28;24761;-76
2021/09/21 09:32:51;;;;;;;6.50;5.45;;;;;;;14.10;68.05;96926.03;4992767;28;24536;-76
2021/09/21 09:35:27;;;;;;;6.65;5.30;;;;;;;14.19;68.00;96922.88;4992132;28;24989;-76
2021/09/21 09:37:54;;;;;;;7.18;4.82;;;;;;;14.00;67.80;96922.28;4992091;28;24998;-76
2021/09/21 09:40:21;;;;;;;9.10;4.93;;;;;;;14.00;66.19;96923.09;4997835;28;24437;-77
2021/09/21 09:42:49;;;;;;;8.00;4.87;;;;;;;13.94;65.06;96927.81;5012340;28;24475;-76
2021/09/21 09:45:27;;;;;;;7.43;4.88;;;;;;;14.11;68.61;96925.09;5011629;28;24416;-76
2021/09/21 09:47:54;;;;;;;7.73;5.03;;;;;;;14.14;66.47;96919.69;5012354;28;24965;-76
2021/09/21 09:50:27;;;;;;;5.90;5.18;;;;;;;14.14;67.55;96917.09;5011724;28;24428;-77
2021/09/21 09:53:07;;;;;;;6.60;5.60;;;;;;;14.13;65.94;96910.22;5012217;28;24841;-77
2021/09/21 09:55:34;;;;;;;7.78;5.53;;;;;;;14.41;68.10;96914.63;5011484;28;24432;-76
2021/09/21 09:58:01;;;;;;;6.07;5.57;;;;;;;14.74;64.30;96918.75;5012874;28;24538;-78
2021/09/21 10:00:29;;;;;;;7.65;5.85;;;;;;;14.50;63.64;96921.09;5013478;28;24463;-78
2021/09/21 10:02:57;;;;;;;6.07;5.38;;;;;;;14.97;64.93;96919.94;5013822;28;24426;-77
2021/09/21 10:05:25;;;;;;;7.18;5.78;;;;;;;15.13;66.38;96919.81;5014522;28;24428;-77
2021/09/21 10:07:55;;;;;;;7.38;5.88;;;;;;;15.16;66.29;96927.47;5015732;28;24535;-77
2021/09/21 10:10:22;;;;;;;9.80;6.35;;;;;;;15.17;65.48;96924.78;5014675;28;24436;-77
2021/09/21 10:12:49;;;;;;;7.73;6.83;;;;;;;15.36;64.51;96934.88;5014267;28;24981;-77
2021/09/21 10:15:16;;;;;;;9.13;6.35;;;;;;;15.68;65.64;96927.66;5013740;28;24427;-78
2021/09/21 10:17:53;;;;;;;5.90;5.30;;;;;;;15.81;61.29;96908.56;5014355;28;24807;-78
2021/09/21 10:20:19;;;;;;;6.10;5.50;;;;;;;15.26;59.59;96918.13;5015101;28;24443;-78
2021/09/21 10:22:53;;;;;;;7.25;5.72;;;;;;;15.69;64.04;96921.47;5015382;28;24421;-79
2021/09/21 10:25:27;;;;;;;7.53;5.90;;;;;;;16.00;61.23;96923.84;5014296;28;24427;-78
2021/09/21 10:27:54;;;;;;;5.93;5.28;;;;;;;15.81;61.20;96934.66;5014514;28;24448;-78
2021/09/21 10:30:23;;;;;;;7.50;5.63;;;;;;;15.65;63.44;96937.41;5014314;28;24984;-80
2021/09/21 10:32:51;;;;;;;6.20;5.20;;;;;;;15.23;59.48;96939.19;5012780;28;25025;-78
2021/09/21 10:35:20;;;;;;;7.32;5.45;;;;;;;14.89;61.20;96946.50;5021833;28;24422;-78
2021/09/21 10:37:59;;;;;;;7.50;5.90;;;;;;;14.49;61.91;96941.09;5033326;28;24704;-79
2021/09/21 10:40:35;;;;;;;6.13;5.53;;;;;;;14.62;62.88;96950.78;5033498;28;24428;-78
2021/09/21 10:43:02;;;;;;;6.13;5.53;;;;;;;14.89;64.40;96946.50;5034525;28;24463;-79
2021/09/21 10:45:28;;;;;;;6.75;6.05;;;;;;;15.29;64.43;96944.03;5032880;28;24503;-78
2021/09/21 10:48:04;;;;;;;9.25;6.53;;;;;;;15.22;62.43;96946.19;5032329;28;24419;-78
2021/09/21 10:50:38;;;;;;;6.78;5.95;;;;;;;14.78;60.79;96943.72;5032325;28;24400;-78
2021/09/21 10:53:07;;;;;;;7.85;6.60;;;;;;;15.15;66.17;96938.84;5031831;28;24969;-77
2021/09/21 10:55:36;;;;;;;6.72;5.38;;;;;;;15.46;63.71;96942.94;5031073;28;24415;-77
2021/09/21 10:58:04;;;;;;;7.27;6.30;;;;;;;15.55;63.25;96939.78;5030909;28;24456;-78
2021/09/21 11:00:34;;;;;;;7.28;6.13;;;;;;;15.57;63.35;96945.72;5031771;28;24420;-78
2021/09/21 11:03:02;;;;;;;7.88;5.90;;;;;;;15.46;62.06;96941.22;5031637;28;24622;-78
2021/09/21 11:05:28;;;;;;;7.60;5.97;;;;;;;15.33;63.35;96942.91;5031439;28;24509;-78
2021/09/21 11:07:56;;;;;;;10.25;6.25;;;;;;;15.18;64.55;96943.88;5031989;28;24423;-78
2021/09/21 11:10:28;;;;;;;11.45;6.90;;;;;;;15.25;63.84;96937.34;5025315;28;24479;-78
2021/09/21 11:12:55;;;;;;;8.07;6.20;;;;;;;14.97;63.38;96940.81;5011888;28;24419;-78
2021/09/21 11:15:23;;;;;;;7.87;6.57;;;;;;;14.78;62.59;96933.28;5011485;28;24471;-78
2021/09/21 11:17:52;;;;;;;7.18;6.47;;;;;;;14.85;63.63;96928.53;5011717;28;24423;-78
2021/09/21 11:20:19;;;;;;;6.10;5.60;;;;;;;15.20;65.63;96937.63;5011753;28;24443;-78
2021/09/21 11:22:49;;;;;;;10.80;7.13;;;;;;;14.67;62.33;96944.34;5011905;28;24401;-78
2021/09/21 11:25:15;;;;;;;8.90;7.00;;;;;;;14.20;62.04;96929.78;5011829;28;24977;-78
2021/09/21 11:27:43;;;;;;;9.30;6.35;;;;;;;14.67;65.86;96935.69;5015304;28;24498;-78
2021/09/21 11:30:13;;;;;;;6.45;5.72;;;;;;;14.59;63.23;96941.38;5015861;28;24423;-78
2021/09/21 11:32:41;;;;;;;7.88;5.82;;;;;;;14.67;64.61;96941.75;5015823;28;24779;-78
2021/09/21 11:35:10;;;;;;;7.60;5.63;;;;;;;14.77;64.75;96936.81;5015095;28;24425;-78
2021/09/21 11:37:37;;;;;;;7.00;5.78;;;;;;;14.91;64.59;96943.81;5015308;28;24829;-78
2021/09/21 11:40:05;;;;;;;8.15;6.70;;;;;;;15.33;67.86;96942.06;5018797;28;24447;-78